createdAt,value
2022-09-03T00:02:08.438Z,40.08
2022-09-03T00:04:48.017Z,38.83
2022-09-03T00:07:21.254Z,28.30
2022-09-03T00:09:55.611Z,30.48
2022-09-03T00:12:27.389Z,31.23
2022-09-03T00:15:01.834Z,35.38
2022-09-03T00:17:33.454Z,35.35
2022-09-03T00:20:06.367Z,36.53
2022-09-03T00:22:39.269Z,38.63
2022-09-03T00:25:13.004Z,35.58
2022-09-03T00:27:42.787Z,35.22
2022-09-03T00:30:14.635Z,36.22
2022-09-03T00:32:47.847Z,33.47
2022-09-03T00:35:20.835Z,39.47
2022-09-03T00:37:49.964Z,35.75
2022-09-03T00:40:33.468Z,35.30
2022-09-03T00:43:11.029Z,41.88
2022-09-03T00:45:45.499Z,36.42
2022-09-03T00:48:28.364Z,64.65
2022-09-03T00:51:11.844Z,80.90
2022-09-03T00:53:51.351Z,51.25
2022-09-03T00:56:28.347Z,48.17
2022-09-03T00:59:09.325Z,40.33
2022-09-03T01:01:47.831Z,40.10
2022-09-03T01:04:29.192Z,45.22
2022-09-03T01:07:06.059Z,36.42
2022-09-03T01:09:48.981Z,40.70
2022-09-03T01:12:25.344Z,49.15
2022-09-03T01:15:05.269Z,55.60
2022-09-03T01:17:45.575Z,44.10
2022-09-03T01:20:24.090Z,40.90
2022-09-03T01:23:29.086Z,58.45
2022-09-03T01:26:12.116Z,46.78
2022-09-03T01:28:55.294Z,42.33
2022-09-03T01:31:36.139Z,35.35
2022-09-03T01:34:14.128Z,77.93
2022-09-03T01:36:50.745Z,83.88
2022-09-03T01:39:27.664Z,62.60
2022-09-03T01:42:20.965Z,51.37
2022-09-03T01:45:12.037Z,46.67
2022-09-03T01:47:51.860Z,55.23
2022-09-03T01:50:34.766Z,46.92
2022-09-03T01:53:11.727Z,46.80
2022-09-03T01:55:56.030Z,64.35
2022-09-03T01:58:31.354Z,62.70
2022-09-03T02:01:07.206Z,79.30
2022-09-03T02:03:40.788Z,49.10
2022-09-03T02:06:09.033Z,37.10
2022-09-03T02:08:36.521Z,37.78
2022-09-03T02:11:07.991Z,39.57
2022-09-03T02:13:39.651Z,37.53
2022-09-03T02:16:14.009Z,38.17
2022-09-03T02:18:46.885Z,38.50
2022-09-03T02:21:17.733Z,27.33
2022-09-03T02:23:45.309Z,21.37
2022-09-03T02:26:17.521Z,27.13
2022-09-03T02:28:45.579Z,50.60
2022-09-03T02:31:14.720Z,47.03
2022-09-03T02:33:45.018Z,66.47
2022-09-03T02:36:15.356Z,49.67
2022-09-03T02:38:44.311Z,66.63
2022-09-03T02:41:15.003Z,40.85
2022-09-03T02:43:47.167Z,41.13
2022-09-03T02:46:21.845Z,62.97
2022-09-03T02:48:49.553Z,67.00
2022-09-03T02:51:17.052Z,39.37
2022-09-03T02:53:45.015Z,38.05
2022-09-03T02:56:12.951Z,41.17
2022-09-03T02:58:40.893Z,37.87
2022-09-03T03:01:08.466Z,28.93
2022-09-03T03:03:37.325Z,30.38
2022-09-03T03:06:07.215Z,46.88
2022-09-03T03:08:35.167Z,26.53
2022-09-03T03:11:02.956Z,29.45
2022-09-03T03:13:31.886Z,33.85
2022-09-03T03:16:00.748Z,30.80
2022-09-03T03:18:28.929Z,32.57
2022-09-03T03:20:57.915Z,32.38
2022-09-03T03:23:25.416Z,36.33
2022-09-03T03:25:52.912Z,35.85
2022-09-03T03:28:20.601Z,39.78
2022-09-03T03:30:48.996Z,45.47
2022-09-03T03:33:16.626Z,50.35
2022-09-03T03:35:44.115Z,41.58
2022-09-03T03:38:13.112Z,46.03
2022-09-03T03:40:40.643Z,48.88
2022-09-03T03:43:08.181Z,52.33
2022-09-03T03:45:35.810Z,56.38
2022-09-03T03:48:03.587Z,50.03
2022-09-03T03:50:31.082Z,53.05
2022-09-03T03:53:00.829Z,53.15
2022-09-03T03:55:34.999Z,51.65
2022-09-03T03:58:02.901Z,53.15
2022-09-03T04:00:30.373Z,50.65
2022-09-03T04:02:57.997Z,49.28
2022-09-03T04:05:25.532Z,45.95
2022-09-03T04:07:54.378Z,44.08
2022-09-03T04:10:21.936Z,46.55
2022-09-03T04:12:50.736Z,50.70
2022-09-03T04:15:18.309Z,50.05
2022-09-03T04:17:45.815Z,53.10
2022-09-03T04:20:13.299Z,48.60
2022-09-03T04:22:40.786Z,47.33
2022-09-03T04:25:09.130Z,47.88
2022-09-03T04:27:36.617Z,49.20
2022-09-03T04:30:06.327Z,49.20
2022-09-03T04:32:52.489Z,48.90
2022-09-03T04:35:20.873Z,48.83
2022-09-03T04:37:48.430Z,50.30
2022-09-03T04:40:15.955Z,52.15
2022-09-03T04:42:43.486Z,48.72
2022-09-03T04:45:18.501Z,51.33
2022-09-03T04:47:47.383Z,49.92
2022-09-03T04:50:14.930Z,52.70
2022-09-03T04:52:42.408Z,54.38
2022-09-03T04:55:12.055Z,48.70
2022-09-03T04:57:39.538Z,50.70
2022-09-03T05:00:11.191Z,44.65
2022-09-03T05:02:40.114Z,41.17
2022-09-03T05:05:08.243Z,39.25
2022-09-03T05:07:38.670Z,40.78
2022-09-03T05:10:08.202Z,41.60
2022-09-03T05:12:36.537Z,41.08
2022-09-03T05:15:05.416Z,41.35
2022-09-03T05:17:37.217Z,44.47
2022-09-03T05:20:08.441Z,46.70
2022-09-03T05:22:36.064Z,44.83
2022-09-03T05:25:03.592Z,32.67
2022-09-03T05:27:32.164Z,27.70
2022-09-03T05:29:59.957Z,25.88
2022-09-03T05:32:28.669Z,24.10
2022-09-03T05:34:56.624Z,26.77
2022-09-03T05:37:25.908Z,26.77
2022-09-03T05:39:53.902Z,22.05
2022-09-03T05:42:21.936Z,18.30
2022-09-03T05:44:49.956Z,18.42
2022-09-03T05:47:17.503Z,18.58
2022-09-03T05:49:44.984Z,16.83
2022-09-03T05:52:12.481Z,19.75
2022-09-03T05:54:41.316Z,17.63
2022-09-03T05:57:08.828Z,20.05
2022-09-03T05:59:36.319Z,16.58
2022-09-03T06:02:03.979Z,15.30
2022-09-03T06:04:31.612Z,16.08
2022-09-03T06:07:00.846Z,15.95
2022-09-03T06:09:28.327Z,18.27
2022-09-03T06:11:57.496Z,30.63
2022-09-03T06:14:27.173Z,15.68
2022-09-03T06:16:55.764Z,22.88
2022-09-03T06:19:23.656Z,8.88
2022-09-03T06:21:51.213Z,29.30
2022-09-03T06:24:23.182Z,9.45
2022-09-03T06:26:54.090Z,16.38
2022-09-03T06:29:22.923Z,16.40
2022-09-03T06:31:50.798Z,37.38
2022-09-03T06:34:19.336Z,9.45
2022-09-03T06:36:46.894Z,7.85
2022-09-03T06:39:14.386Z,19.73
2022-09-03T06:41:41.884Z,9.05
2022-09-03T06:44:12.303Z,6.63
2022-09-03T06:46:43.185Z,6.97
2022-09-03T06:49:11.397Z,5.28
2022-09-03T06:51:39.601Z,7.05
2022-09-03T06:54:08.686Z,5.82
2022-09-03T06:56:40.542Z,6.00
2022-09-03T06:59:09.802Z,5.82
2022-09-03T07:01:40.778Z,7.10
2022-09-03T07:04:16.114Z,6.55
2022-09-03T07:06:44.199Z,5.25
2022-09-03T07:09:13.171Z,7.20
2022-09-03T07:11:46.953Z,4.78
2022-09-03T07:14:15.850Z,5.15
2022-09-03T07:16:43.785Z,12.80
2022-09-03T07:19:13.416Z,16.92
2022-09-03T07:21:48.180Z,7.05
2022-09-03T07:24:17.997Z,9.77
2022-09-03T07:26:46.529Z,12.75
2022-09-03T07:29:15.753Z,11.10
2022-09-03T07:31:44.355Z,15.18
2022-09-03T07:34:16.397Z,22.38
2022-09-03T07:36:47.001Z,10.35
2022-09-03T07:39:18.143Z,10.38
2022-09-03T07:41:46.661Z,11.73
2022-09-03T07:44:16.132Z,10.27
2022-09-03T07:46:46.041Z,13.07
2022-09-03T07:49:14.968Z,16.35
2022-09-03T07:51:42.557Z,20.40
2022-09-03T07:54:11.919Z,21.30
2022-09-03T07:56:40.666Z,23.80
2022-09-03T07:59:08.692Z,27.38
2022-09-03T08:01:41.230Z,28.52
2022-09-03T08:04:10.883Z,22.35
2022-09-03T08:06:40.325Z,23.80
2022-09-03T08:09:11.303Z,27.65
2022-09-03T08:11:40.663Z,19.40
2022-09-03T08:14:10.336Z,17.65
2022-09-03T08:16:39.847Z,19.65
2022-09-03T08:19:07.599Z,16.75
2022-09-03T08:21:35.727Z,13.52
2022-09-03T08:24:05.663Z,16.60
2022-09-03T08:26:35.541Z,17.73
2022-09-03T08:29:04.465Z,16.08
2022-09-03T08:31:33.649Z,15.35
2022-09-03T08:34:06.671Z,15.65
2022-09-03T08:36:39.030Z,17.08
2022-09-03T08:39:10.673Z,20.73
2022-09-03T08:42:02.831Z,17.52
2022-09-03T08:44:35.752Z,20.83
2022-09-03T08:47:10.219Z,16.33
2022-09-03T08:49:44.695Z,23.20
2022-09-03T08:52:26.111Z,20.73
2022-09-03T08:55:01.424Z,21.55
2022-09-03T08:57:33.321Z,22.42
2022-09-03T09:00:00.940Z,17.77
2022-09-03T09:02:42.689Z,20.33
2022-09-03T09:05:14.317Z,25.92
2022-09-03T09:07:47.740Z,24.77
2022-09-03T09:10:23.689Z,21.45
2022-09-03T09:13:06.073Z,19.90
2022-09-03T09:15:41.754Z,23.25
2022-09-03T09:18:19.915Z,19.38
2022-09-03T09:20:50.917Z,21.48
2022-09-03T09:23:25.920Z,24.65
2022-09-03T09:25:58.520Z,27.70
2022-09-03T09:28:30.961Z,23.25
2022-09-03T09:30:58.862Z,26.75
2022-09-03T09:33:26.457Z,23.08
2022-09-03T09:35:53.932Z,23.50
2022-09-03T09:38:29.920Z,23.30
2022-09-03T09:41:09.907Z,18.23
2022-09-03T09:43:37.872Z,27.95
2022-09-03T09:46:10.381Z,22.13
2022-09-03T09:48:46.350Z,17.70
2022-09-03T09:51:18.901Z,27.17
2022-09-03T09:53:46.425Z,24.33
2022-09-03T09:56:23.946Z,21.63
2022-09-03T09:58:52.641Z,16.55
2022-09-03T10:01:25.741Z,18.70
2022-09-03T10:03:55.780Z,15.63
2022-09-03T10:06:43.369Z,20.00
2022-09-03T10:09:13.511Z,20.48
2022-09-03T10:11:46.919Z,19.15
2022-09-03T10:14:26.138Z,22.52
2022-09-03T10:17:01.744Z,21.55
2022-09-03T10:19:37.596Z,16.92
2022-09-03T10:22:10.950Z,19.92
2022-09-03T10:24:52.115Z,16.52
2022-09-03T10:27:22.121Z,16.38
2022-09-03T10:29:50.179Z,14.85
2022-09-03T10:32:37.796Z,21.35
2022-09-03T10:35:20.388Z,17.52
2022-09-03T10:37:54.336Z,25.65
2022-09-03T10:40:31.668Z,21.90
2022-09-03T10:43:17.711Z,30.75
2022-09-03T10:45:54.629Z,21.58
2022-09-03T10:48:35.340Z,20.20
2022-09-03T10:51:06.599Z,21.10
2022-09-03T10:53:49.910Z,20.13
2022-09-03T10:56:22.479Z,19.67
2022-09-03T10:59:04.596Z,21.88
2022-09-03T11:01:40.300Z,19.10
2022-09-03T11:04:26.531Z,29.33
2022-09-03T11:06:58.904Z,22.88
2022-09-03T11:09:32.570Z,19.38
2022-09-03T11:12:05.317Z,27.98
2022-09-03T11:14:39.169Z,28.13
2022-09-03T11:17:11.608Z,21.40
2022-09-03T11:19:48.203Z,23.35
2022-09-03T11:22:20.977Z,15.88
2022-09-03T11:24:55.271Z,25.40
2022-09-03T11:27:32.490Z,24.60
2022-09-03T11:30:05.936Z,18.83
2022-09-03T11:32:46.656Z,22.60
2022-09-03T11:35:16.659Z,19.55
2022-09-03T11:37:55.000Z,14.68
2022-09-03T11:40:33.109Z,17.20
2022-09-03T11:43:08.701Z,25.02
2022-09-03T11:45:39.184Z,20.38
2022-09-03T11:48:33.087Z,23.05
2022-09-03T11:51:00.551Z,16.08
2022-09-03T11:53:35.494Z,13.70
2022-09-03T11:56:19.325Z,12.50
2022-09-03T11:58:48.404Z,18.10
2022-09-03T12:01:19.185Z,21.13
2022-09-03T12:03:50.239Z,16.15
2022-09-03T12:06:43.311Z,19.30
2022-09-03T12:09:38.446Z,21.70
2022-09-03T12:12:23.843Z,22.50
2022-09-03T12:15:00.000Z,26.83
2022-09-03T12:17:35.982Z,28.92
2022-09-03T12:20:04.357Z,27.02
2022-09-03T12:22:38.646Z,22.65
2022-09-03T12:25:12.144Z,20.52
2022-09-03T12:27:41.515Z,28.98
2022-09-03T12:30:18.081Z,20.60
2022-09-03T12:32:47.421Z,20.73
2022-09-03T12:38:08.410Z,17.40
2022-09-03T12:41:19.173Z,20.60
2022-09-03T12:43:49.792Z,20.73
2022-09-03T12:46:17.635Z,19.50
2022-09-03T12:51:52.435Z,16.77
2022-09-03T12:54:23.159Z,14.95
2022-09-03T12:56:57.403Z,6.55
2022-09-03T12:59:28.276Z,6.63
2022-09-03T13:01:59.390Z,16.35
2022-09-03T13:04:32.834Z,11.77
2022-09-03T13:07:04.603Z,6.07
2022-09-03T13:09:36.844Z,11.75
2022-09-03T13:12:05.802Z,12.63
2022-09-03T13:14:44.681Z,7.53
2022-09-03T13:17:38.261Z,8.18
2022-09-03T13:20:26.731Z,8.48
2022-09-03T13:23:11.183Z,7.53
2022-09-03T13:25:49.429Z,9.32
2022-09-03T13:28:28.678Z,9.55
2022-09-03T13:31:01.594Z,13.30
2022-09-03T13:33:38.933Z,21.10
2022-09-03T13:36:15.778Z,22.75
2022-09-03T13:38:50.635Z,23.83
2022-09-03T13:41:34.648Z,24.30
2022-09-03T13:44:09.846Z,25.70
2022-09-03T13:46:44.332Z,23.80
2022-09-03T13:49:40.511Z,20.30
2022-09-03T13:52:22.685Z,23.95
2022-09-03T13:54:55.681Z,26.13
2022-09-03T13:57:33.712Z,26.45
2022-09-03T14:00:07.769Z,21.25
2022-09-03T14:02:49.747Z,44.60
2022-09-03T14:05:32.247Z,33.67
2022-09-03T14:08:10.118Z,35.08
2022-09-03T14:10:59.175Z,27.50
2022-09-03T14:13:38.051Z,27.10
2022-09-03T14:16:09.574Z,26.65
2022-09-03T14:18:47.266Z,27.92
2022-09-03T14:21:19.583Z,31.70
2022-09-03T14:23:52.367Z,24.95
2022-09-03T14:26:38.690Z,22.30
2022-09-03T14:29:15.645Z,38.88
2022-09-03T14:31:58.930Z,41.63
2022-09-03T14:34:39.113Z,44.00
2022-09-03T14:37:16.139Z,61.55
2022-09-03T14:39:51.840Z,45.22
2022-09-03T14:42:37.787Z,51.60
2022-09-03T14:45:24.620Z,26.40
2022-09-03T14:48:09.687Z,42.53
2022-09-03T14:51:06.247Z,62.08
2022-09-03T14:53:58.377Z,26.67
2022-09-03T14:56:41.822Z,30.95
2022-09-03T14:59:43.635Z,42.13
2022-09-03T15:02:31.011Z,61.15
2022-09-03T15:05:12.245Z,52.85
2022-09-03T15:07:47.731Z,53.55
2022-09-03T15:10:22.867Z,50.75
2022-09-03T15:12:54.261Z,54.03
2022-09-03T15:15:26.343Z,49.90
2022-09-03T15:18:10.861Z,50.55
2022-09-03T15:20:50.656Z,51.90
2022-09-03T15:23:47.100Z,40.03
2022-09-03T15:26:41.551Z,42.47
2022-09-03T15:29:30.124Z,37.75
2022-09-03T15:32:07.894Z,34.65
2022-09-03T15:34:51.711Z,31.80
2022-09-03T15:37:24.672Z,31.13
2022-09-03T15:40:02.483Z,33.95
2022-09-03T15:42:31.313Z,22.17
2022-09-03T15:45:07.398Z,20.23
2022-09-03T15:47:51.567Z,19.35
2022-09-03T15:50:30.527Z,17.13
2022-09-03T15:53:04.862Z,15.43
2022-09-03T15:55:37.018Z,16.02
2022-09-03T15:58:14.328Z,17.98
2022-09-03T16:01:00.122Z,18.17
2022-09-03T16:03:46.720Z,20.08
2022-09-03T16:06:26.140Z,21.55
2022-09-03T16:08:58.475Z,20.63
2022-09-03T16:11:37.094Z,19.00
2022-09-03T16:14:12.171Z,18.50
2022-09-03T16:16:54.993Z,20.30
2022-09-03T16:19:28.011Z,21.08
2022-09-03T16:22:00.801Z,22.42
2022-09-03T16:24:38.453Z,23.00
2022-09-03T16:27:12.179Z,22.13
2022-09-03T16:29:40.511Z,20.25
2022-09-03T16:32:27.027Z,20.13
2022-09-03T16:35:05.208Z,24.38
2022-09-03T16:37:39.400Z,20.58
2022-09-03T16:40:17.228Z,19.73
2022-09-03T16:42:51.715Z,21.60
2022-09-03T16:45:30.810Z,21.00
2022-09-03T16:48:17.354Z,19.67
2022-09-03T16:51:04.360Z,18.80
2022-09-03T16:53:50.465Z,21.55
2022-09-03T16:56:36.548Z,21.45
2022-09-03T16:59:17.849Z,18.60
2022-09-03T17:02:01.876Z,19.73
2022-09-03T17:04:54.700Z,30.90
2022-09-03T17:07:37.605Z,33.75
2022-09-03T17:10:14.535Z,33.08
2022-09-03T17:12:50.812Z,46.30
2022-09-03T17:15:31.420Z,49.90
2022-09-03T17:18:17.467Z,53.97
2022-09-03T17:21:01.823Z,42.97
2022-09-03T17:23:49.820Z,40.97
2022-09-03T17:26:29.240Z,37.50
2022-09-03T17:29:12.829Z,43.13
2022-09-03T17:31:51.383Z,27.02
2022-09-03T17:34:39.883Z,37.47
2022-09-03T17:37:23.123Z,75.57
2022-09-03T17:40:08.911Z,79.55
2022-09-03T17:42:49.840Z,64.70
2022-09-03T17:45:28.165Z,71.32
2022-09-03T17:48:14.850Z,58.13
2022-09-03T17:50:51.151Z,53.20
2022-09-03T17:53:26.046Z,69.32
2022-09-03T17:55:58.679Z,69.82
2022-09-03T17:58:32.619Z,103.28
2022-09-03T18:01:07.895Z,61.22
2022-09-03T18:03:44.966Z,76.53
2022-09-03T18:06:24.001Z,92.70
2022-09-03T18:08:58.684Z,90.28
2022-09-03T18:11:34.062Z,74.93
2022-09-03T18:14:11.185Z,80.40
2022-09-03T18:16:43.352Z,82.75
2022-09-03T18:19:19.419Z,85.88
2022-09-03T18:22:07.802Z,79.03
2022-09-03T18:25:01.967Z,88.00
2022-09-03T18:27:52.497Z,62.17
2022-09-03T18:30:37.854Z,61.60
2022-09-03T18:33:23.451Z,57.83
2022-09-03T18:36:08.208Z,67.50
2022-09-03T18:38:55.075Z,64.00
2022-09-03T18:42:03.443Z,65.07
2022-09-03T18:45:20.241Z,56.67
2022-09-03T18:48:20.766Z,80.40
2022-09-03T18:51:15.529Z,66.22
2022-09-03T18:54:08.874Z,76.75
2022-09-03T18:57:01.483Z,66.78
2022-09-03T19:00:19.115Z,64.72
2022-09-03T19:03:15.648Z,74.30
2022-09-03T19:06:14.265Z,72.40
2022-09-03T19:09:07.284Z,69.10
2022-09-03T19:12:00.068Z,68.80
2022-09-03T19:14:53.375Z,70.80
2022-09-03T19:17:48.765Z,72.25
2022-09-03T19:20:43.685Z,71.93
2022-09-03T19:23:28.863Z,69.55
2022-09-03T19:26:19.542Z,68.85
2022-09-03T19:29:10.671Z,75.70
2022-09-03T19:32:03.551Z,71.57
2022-09-03T19:35:10.631Z,75.60
2022-09-03T19:38:00.071Z,68.63
2022-09-03T19:40:59.539Z,74.30
2022-09-03T19:43:55.004Z,69.32
2022-09-03T19:46:52.755Z,60.40
2022-09-03T19:49:48.760Z,61.75
2022-09-03T19:52:43.179Z,58.35
2022-09-03T19:55:31.549Z,68.18
2022-09-03T19:58:41.493Z,67.25
2022-09-03T20:01:24.585Z,67.30
2022-09-03T20:04:11.285Z,69.25
2022-09-03T20:06:57.584Z,69.40
2022-09-03T20:09:48.438Z,66.03
2022-09-03T20:12:21.020Z,68.75
2022-09-03T20:14:48.646Z,71.10
2022-09-03T20:17:27.968Z,74.57
2022-09-03T20:20:16.621Z,73.18
2022-09-03T20:22:51.852Z,73.93
2022-09-03T20:25:36.111Z,75.80
2022-09-03T20:28:15.578Z,70.53
2022-09-03T20:30:48.866Z,72.30
2022-09-03T20:33:32.083Z,66.30
2022-09-03T20:36:14.893Z,64.53
2022-09-03T20:39:11.022Z,67.43
2022-09-03T20:41:50.143Z,69.90
2022-09-03T20:44:33.197Z,62.53
2022-09-03T20:47:16.013Z,62.30
2022-09-03T20:49:53.981Z,66.15
2022-09-03T20:52:34.234Z,70.68
2022-09-03T20:55:08.846Z,70.70
2022-09-03T20:57:45.669Z,67.35
2022-09-03T21:00:15.722Z,67.32
2022-09-03T21:03:03.623Z,66.40
2022-09-03T21:05:35.583Z,74.07
2022-09-03T21:08:13.195Z,66.68
2022-09-03T21:10:49.011Z,67.28
2022-09-03T21:13:32.685Z,72.05
2022-09-03T21:16:25.287Z,64.82
2022-09-03T21:19:00.472Z,66.43
2022-09-03T21:21:40.328Z,70.40
2022-09-03T21:24:15.547Z,65.60
2022-09-03T21:26:50.456Z,67.43
2022-09-03T21:29:24.205Z,68.55
2022-09-03T21:31:57.392Z,70.30
2022-09-03T21:34:30.835Z,72.75
2022-09-03T21:37:00.756Z,68.28
2022-09-03T21:39:33.386Z,68.32
2022-09-03T21:42:06.445Z,62.97
2022-09-03T21:44:51.775Z,64.15
2022-09-03T21:47:21.231Z,68.45
2022-09-03T21:50:03.588Z,55.95
2022-09-03T21:52:40.580Z,63.03
2022-09-03T21:55:32.173Z,62.47
2022-09-03T21:58:11.243Z,58.83
2022-09-03T22:00:39.306Z,64.15
2022-09-03T22:03:09.628Z,61.25
2022-09-03T22:05:49.660Z,68.93
2022-09-03T22:08:25.226Z,76.10
2022-09-03T22:11:01.533Z,86.20
2022-09-03T22:13:32.529Z,73.32
2022-09-03T22:16:13.641Z,73.80
2022-09-03T22:18:41.347Z,66.40
2022-09-03T22:21:19.714Z,71.40
2022-09-03T22:24:07.206Z,63.47
2022-09-03T22:26:45.547Z,58.90
2022-09-03T22:29:20.344Z,62.05
2022-09-03T22:31:58.350Z,60.42
2022-09-03T22:34:46.889Z,63.05
2022-09-03T22:37:25.143Z,61.38
2022-09-03T22:40:03.910Z,60.08
2022-09-03T22:42:47.676Z,62.22
2022-09-03T22:45:40.543Z,60.30
2022-09-03T22:48:22.852Z,57.60
2022-09-03T22:50:57.530Z,59.33
2022-09-03T22:53:42.663Z,59.60
2022-09-03T22:56:12.697Z,56.17
2022-09-03T22:58:47.516Z,59.50
2022-09-03T23:01:19.102Z,66.30
2022-09-03T23:03:54.402Z,75.85
2022-09-03T23:06:26.949Z,74.47
2022-09-03T23:09:01.292Z,62.75
2022-09-03T23:11:34.579Z,61.85
2022-09-03T23:14:06.222Z,62.05
2022-09-03T23:16:39.392Z,66.40
2022-09-03T23:21:57.728Z,72.43
2022-09-03T23:24:29.721Z,50.08
2022-09-03T23:27:01.238Z,49.65
2022-09-03T23:29:36.577Z,54.97
2022-09-03T23:32:05.209Z,61.67
2022-09-03T23:34:33.372Z,56.53
2022-09-03T23:37:35.320Z,57.00
2022-09-03T23:40:21.025Z,55.78
2022-09-03T23:43:05.507Z,63.05
2022-09-03T23:45:44.116Z,58.10
2022-09-03T23:48:23.798Z,61.10
2022-09-03T23:51:03.877Z,66.95
2022-09-03T23:53:47.312Z,52.50
2022-09-03T23:56:35.760Z,64.35
2022-09-03T23:59:13.420Z,63.67
